sensor_id;sensor_type;location;lat;lon;timestamp;temperature;humidity
23562;DHT22;11959;49.418;8.728;2022-08-21T00:02:00;17.50;99.90
23562;DHT22;11959;49.418;8.728;2022-08-21T00:04:25;17.50;99.90
23562;DHT22;11959;49.418;8.728;2022-08-21T00:06:52;17.50;99.90
23562;DHT22;11959;49.418;8.728;2022-08-21T00:09:19;17.50;99.90
23562;DHT22;11959;49.418;8.728;2022-08-21T00:11:45;17.40;99.90
23562;DHT22;11959;49.418;8.728;2022-08-21T00:14:14;17.40;99.90
23562;DHT22;11959;49.418;8.728;2022-08-21T00:16:40;17.40;99.90
23562;DHT22;11959;49.418;8.728;2022-08-21T00:19:07;17.40;99.90
23562;DHT22;11959;49.418;8.728;2022-08-21T00:21:34;17.30;99.90
23562;DHT22;11959;49.418;8.728;2022-08-21T00:24:00;17.40;99.90
23562;DHT22;11959;49.418;8.728;2022-08-21T00:26:26;17.30;99.90
23562;DHT22;11959;49.418;8.728;2022-08-21T00:28:52;17.20;99.90
23562;DHT22;11959;49.418;8.728;2022-08-21T00:31:18;17.20;99.90
23562;DHT22;11959;49.418;8.728;2022-08-21T00:33:44;17.20;99.90
23562;DHT22;11959;49.418;8.728;2022-08-21T00:36:11;17.10;99.90
23562;DHT22;11959;49.418;8.728;2022-08-21T00:38:37;17.10;99.90
23562;DHT22;11959;49.418;8.728;2022-08-21T00:41:04;17.00;99.90
23562;DHT22;11959;49.418;8.728;2022-08-21T00:43:34;17.00;99.90
23562;DHT22;11959;49.418;8.728;2022-08-21T00:46:01;17.00;99.90
23562;DHT22;11959;49.418;8.728;2022-08-21T00:48:27;17.00;99.90
23562;DHT22;11959;49.418;8.728;2022-08-21T00:51:00;16.90;99.90
23562;DHT22;11959;49.418;8.728;2022-08-21T00:53:27;16.90;99.90
23562;DHT22;11959;49.418;8.728;2022-08-21T00:55:55;16.90;99.90
23562;DHT22;11959;49.418;8.728;2022-08-21T00:58:21;16.80;99.90
23562;DHT22;11959;49.418;8.728;2022-08-21T01:00:49;16.80;99.90
23562;DHT22;11959;49.418;8.728;2022-08-21T01:03:18;16.80;99.90
23562;DHT22;11959;49.418;8.728;2022-08-21T01:05:45;16.80;99.90
23562;DHT22;11959;49.418;8.728;2022-08-21T01:08:13;16.80;99.90
23562;DHT22;11959;49.418;8.728;2022-08-21T01:10:40;16.70;99.90
23562;DHT22;11959;49.418;8.728;2022-08-21T01:13:07;16.80;99.90
23562;DHT22;11959;49.418;8.728;2022-08-21T01:15:37;16.70;99.90
23562;DHT22;11959;49.418;8.728;2022-08-21T01:18:05;16.80;99.90
23562;DHT22;11959;49.418;8.728;2022-08-21T01:20:31;16.70;99.90
23562;DHT22;11959;49.418;8.728;2022-08-21T01:22:57;16.70;99.90
23562;DHT22;11959;49.418;8.728;2022-08-21T01:25:23;16.70;99.90
23562;DHT22;11959;49.418;8.728;2022-08-21T01:27:48;16.70;99.90
23562;DHT22;11959;49.418;8.728;2022-08-21T01:30:21;16.70;99.90
23562;DHT22;11959;49.418;8.728;2022-08-21T01:32:49;16.60;99.90
23562;DHT22;11959;49.418;8.728;2022-08-21T01:35:16;16.60;99.90
23562;DHT22;11959;49.418;8.728;2022-08-21T01:37:42;16.60;99.90
23562;DHT22;11959;49.418;8.728;2022-08-21T01:40:08;16.60;99.90
23562;DHT22;11959;49.418;8.728;2022-08-21T01:42:35;16.60;99.90
23562;DHT22;11959;49.418;8.728;2022-08-21T01:45:00;16.50;99.90
23562;DHT22;11959;49.418;8.728;2022-08-21T01:47:26;16.50;99.90
23562;DHT22;11959;49.418;8.728;2022-08-21T01:49:52;16.50;99.90
23562;DHT22;11959;49.418;8.728;2022-08-21T01:52:18;16.40;99.90
23562;DHT22;11959;49.418;8.728;2022-08-21T01:54:44;16.40;99.90
23562;DHT22;11959;49.418;8.728;2022-08-21T01:57:11;16.40;99.90
23562;DHT22;11959;49.418;8.728;2022-08-21T01:59:37;16.40;99.90
23562;DHT22;11959;49.418;8.728;2022-08-21T02:02:03;16.40;99.90
23562;DHT22;11959;49.418;8.728;2022-08-21T02:04:29;16.40;99.90
23562;DHT22;11959;49.418;8.728;2022-08-21T02:06:55;16.30;99.90
23562;DHT22;11959;49.418;8.728;2022-08-21T02:09:21;16.30;99.90
23562;DHT22;11959;49.418;8.728;2022-08-21T02:11:47;16.30;99.90
23562;DHT22;11959;49.418;8.728;2022-08-21T02:14:14;16.20;99.90
23562;DHT22;11959;49.418;8.728;2022-08-21T02:16:42;16.20;99.90
23562;DHT22;11959;49.418;8.728;2022-08-21T02:19:09;16.20;99.90
23562;DHT22;11959;49.418;8.728;2022-08-21T02:21:35;16.10;99.90
23562;DHT22;11959;49.418;8.728;2022-08-21T02:24:01;16.10;99.90
23562;DHT22;11959;49.418;8.728;2022-08-21T02:26:27;16.10;99.90
23562;DHT22;11959;49.418;8.728;2022-08-21T02:28:53;16.10;99.90
23562;DHT22;11959;49.418;8.728;2022-08-21T02:31:18;16.10;99.90
23562;DHT22;11959;49.418;8.728;2022-08-21T02:33:44;16.00;99.90
23562;DHT22;11959;49.418;8.728;2022-08-21T02:36:11;16.00;99.90
23562;DHT22;11959;49.418;8.728;2022-08-21T02:38:38;16.00;99.90
23562;DHT22;11959;49.418;8.728;2022-08-21T02:41:14;16.00;99.90
23562;DHT22;11959;49.418;8.728;2022-08-21T02:43:41;15.90;99.90
23562;DHT22;11959;49.418;8.728;2022-08-21T02:46:08;15.90;99.90
23562;DHT22;11959;49.418;8.728;2022-08-21T02:48:35;15.90;99.90
23562;DHT22;11959;49.418;8.728;2022-08-21T02:51:04;15.90;99.90
23562;DHT22;11959;49.418;8.728;2022-08-21T02:53:31;15.90;99.90
23562;DHT22;11959;49.418;8.728;2022-08-21T02:55:59;15.90;99.90
23562;DHT22;11959;49.418;8.728;2022-08-21T02:58:28;15.90;99.90
23562;DHT22;11959;49.418;8.728;2022-08-21T03:00:54;15.90;99.90
23562;DHT22;11959;49.418;8.728;2022-08-21T03:03:20;15.90;99.90
23562;DHT22;11959;49.418;8.728;2022-08-21T03:05:47;15.90;99.90
23562;DHT22;11959;49.418;8.728;2022-08-21T03:08:14;15.90;99.90
23562;DHT22;11959;49.418;8.728;2022-08-21T03:10:43;15.80;99.90
23562;DHT22;11959;49.418;8.728;2022-08-21T03:13:10;15.80;99.90
23562;DHT22;11959;49.418;8.728;2022-08-21T03:15:37;15.80;99.90
23562;DHT22;11959;49.418;8.728;2022-08-21T03:18:03;15.80;99.90
23562;DHT22;11959;49.418;8.728;2022-08-21T03:20:30;15.70;99.90
23562;DHT22;11959;49.418;8.728;2022-08-21T03:22:58;15.70;99.90
23562;DHT22;11959;49.418;8.728;2022-08-21T03:25:25;15.70;99.90
23562;DHT22;11959;49.418;8.728;2022-08-21T03:27:51;15.70;99.90
23562;DHT22;11959;49.418;8.728;2022-08-21T03:30:19;15.70;99.90
23562;DHT22;11959;49.418;8.728;2022-08-21T03:32:46;15.70;99.90
23562;DHT22;11959;49.418;8.728;2022-08-21T03:35:13;15.70;99.90
23562;DHT22;11959;49.418;8.728;2022-08-21T03:37:39;15.70;99.90
23562;DHT22;11959;49.418;8.728;2022-08-21T03:40:07;15.70;99.90
23562;DHT22;11959;49.418;8.728;2022-08-21T03:42:33;15.70;99.90
23562;DHT22;11959;49.418;8.728;2022-08-21T03:44:59;15.70;99.90
23562;DHT22;11959;49.418;8.728;2022-08-21T03:47:25;15.60;99.90
23562;DHT22;11959;49.418;8.728;2022-08-21T03:49:50;15.60;99.90
23562;DHT22;11959;49.418;8.728;2022-08-21T03:52:16;15.60;99.90
23562;DHT22;11959;49.418;8.728;2022-08-21T03:54:43;15.60;99.90
23562;DHT22;11959;49.418;8.728;2022-08-21T03:57:09;15.60;99.90
23562;DHT22;11959;49.418;8.728;2022-08-21T03:59:36;15.60;99.90
23562;DHT22;11959;49.418;8.728;2022-08-21T04:02:04;15.60;99.90
23562;DHT22;11959;49.418;8.728;2022-08-21T04:04:30;15.50;99.90
23562;DHT22;11959;49.418;8.728;2022-08-21T04:06:57;15.50;99.90
23562;DHT22;11959;49.418;8.728;2022-08-21T04:09:23;15.50;99.90
23562;DHT22;11959;49.418;8.728;2022-08-21T04:11:49;15.40;99.90
23562;DHT22;11959;49.418;8.728;2022-08-21T04:14:15;15.40;99.90
23562;DHT22;11959;49.418;8.728;2022-08-21T04:16:42;15.40;99.90
23562;DHT22;11959;49.418;8.728;2022-08-21T04:19:09;15.30;99.90
23562;DHT22;11959;49.418;8.728;2022-08-21T04:21:36;15.30;99.90
23562;DHT22;11959;49.418;8.728;2022-08-21T04:24:03;15.30;99.90
23562;DHT22;11959;49.418;8.728;2022-08-21T04:26:29;15.30;99.90
23562;DHT22;11959;49.418;8.728;2022-08-21T04:28:57;15.30;99.90
23562;DHT22;11959;49.418;8.728;2022-08-21T04:31:24;15.30;99.90
23562;DHT22;11959;49.418;8.728;2022-08-21T04:33:50;15.30;99.90
23562;DHT22;11959;49.418;8.728;2022-08-21T04:36:16;15.20;99.90
23562;DHT22;11959;49.418;8.728;2022-08-21T04:38:42;15.20;99.90
23562;DHT22;11959;49.418;8.728;2022-08-21T04:41:08;15.20;99.90
23562;DHT22;11959;49.418;8.728;2022-08-21T04:43:33;15.20;99.90
23562;DHT22;11959;49.418;8.728;2022-08-21T04:45:59;15.10;99.90
23562;DHT22;11959;49.418;8.728;2022-08-21T04:48:26;15.20;99.90
23562;DHT22;11959;49.418;8.728;2022-08-21T04:56:22;15.10;99.90
23562;DHT22;11959;49.418;8.728;2022-08-21T04:58:49;15.10;99.90
23562;DHT22;11959;49.418;8.728;2022-08-21T05:01:18;15.10;99.90
23562;DHT22;11959;49.418;8.728;2022-08-21T05:03:46;15.10;99.90
23562;DHT22;11959;49.418;8.728;2022-08-21T05:06:13;15.10;99.90
23562;DHT22;11959;49.418;8.728;2022-08-21T05:08:41;15.20;99.90
23562;DHT22;11959;49.418;8.728;2022-08-21T05:11:09;15.20;99.90
23562;DHT22;11959;49.418;8.728;2022-08-21T05:13:35;15.20;99.90
23562;DHT22;11959;49.418;8.728;2022-08-21T05:16:04;15.20;99.90
23562;DHT22;11959;49.418;8.728;2022-08-21T05:18:33;15.20;99.90
23562;DHT22;11959;49.418;8.728;2022-08-21T05:21:02;15.20;99.90
23562;DHT22;11959;49.418;8.728;2022-08-21T05:23:30;15.20;99.90
23562;DHT22;11959;49.418;8.728;2022-08-21T05:25:56;15.20;99.90
23562;DHT22;11959;49.418;8.728;2022-08-21T05:28:22;15.30;99.90
23562;DHT22;11959;49.418;8.728;2022-08-21T05:30:49;15.30;99.90
23562;DHT22;11959;49.418;8.728;2022-08-21T05:33:14;15.30;99.90
23562;DHT22;11959;49.418;8.728;2022-08-21T05:35:41;15.30;99.90
23562;DHT22;11959;49.418;8.728;2022-08-21T05:38:06;15.30;99.90
23562;DHT22;11959;49.418;8.728;2022-08-21T05:40:32;15.40;99.90
23562;DHT22;11959;49.418;8.728;2022-08-21T05:42:58;15.40;99.90
23562;DHT22;11959;49.418;8.728;2022-08-21T05:45:27;15.40;99.90
23562;DHT22;11959;49.418;8.728;2022-08-21T05:47:53;15.40;99.90
23562;DHT22;11959;49.418;8.728;2022-08-21T05:50:19;15.50;99.90
23562;DHT22;11959;49.418;8.728;2022-08-21T05:52:45;15.50;99.90
23562;DHT22;11959;49.418;8.728;2022-08-21T05:55:11;15.50;99.90
23562;DHT22;11959;49.418;8.728;2022-08-21T05:57:36;15.50;99.90
23562;DHT22;11959;49.418;8.728;2022-08-21T06:00:07;15.50;99.90
23562;DHT22;11959;49.418;8.728;2022-08-21T06:02:34;15.60;99.90
23562;DHT22;11959;49.418;8.728;2022-08-21T06:04:59;15.60;99.90
23562;DHT22;11959;49.418;8.728;2022-08-21T06:07:25;15.70;99.90
23562;DHT22;11959;49.418;8.728;2022-08-21T06:09:51;15.70;99.90
23562;DHT22;11959;49.418;8.728;2022-08-21T06:12:17;15.70;99.90
23562;DHT22;11959;49.418;8.728;2022-08-21T06:14:42;15.80;99.90
23562;DHT22;11959;49.418;8.728;2022-08-21T06:17:10;15.80;99.90
23562;DHT22;11959;49.418;8.728;2022-08-21T06:19:37;15.90;99.90
23562;DHT22;11959;49.418;8.728;2022-08-21T06:22:03;15.90;99.90
23562;DHT22;11959;49.418;8.728;2022-08-21T06:24:29;16.00;99.90
23562;DHT22;11959;49.418;8.728;2022-08-21T06:26:56;16.10;99.90
23562;DHT22;11959;49.418;8.728;2022-08-21T06:29:22;16.10;99.90
23562;DHT22;11959;49.418;8.728;2022-08-21T06:31:49;16.10;99.90
23562;DHT22;11959;49.418;8.728;2022-08-21T06:34:16;16.20;99.90
23562;DHT22;11959;49.418;8.728;2022-08-21T06:36:42;16.30;99.90
23562;DHT22;11959;49.418;8.728;2022-08-21T06:39:07;16.40;99.90
23562;DHT22;11959;49.418;8.728;2022-08-21T06:41:33;16.40;99.90
23562;DHT22;11959;49.418;8.728;2022-08-21T06:43:59;16.50;99.90
23562;DHT22;11959;49.418;8.728;2022-08-21T06:46:28;16.60;99.90
23562;DHT22;11959;49.418;8.728;2022-08-21T06:48:55;16.60;99.90
23562;DHT22;11959;49.418;8.728;2022-08-21T06:51:21;16.70;99.90
23562;DHT22;11959;49.418;8.728;2022-08-21T06:53:46;16.80;99.90
23562;DHT22;11959;49.418;8.728;2022-08-21T06:56:12;16.90;99.90
23562;DHT22;11959;49.418;8.728;2022-08-21T06:58:38;17.00;99.90
23562;DHT22;11959;49.418;8.728;2022-08-21T07:01:04;17.00;99.90
23562;DHT22;11959;49.418;8.728;2022-08-21T07:03:38;17.10;99.90
23562;DHT22;11959;49.418;8.728;2022-08-21T07:06:06;17.10;99.90
23562;DHT22;11959;49.418;8.728;2022-08-21T07:08:32;17.20;99.90
23562;DHT22;11959;49.418;8.728;2022-08-21T07:11:00;17.30;99.90
23562;DHT22;11959;49.418;8.728;2022-08-21T07:13:27;17.40;99.90
23562;DHT22;11959;49.418;8.728;2022-08-21T07:15:53;17.50;99.90
23562;DHT22;11959;49.418;8.728;2022-08-21T07:18:19;17.50;99.90
23562;DHT22;11959;49.418;8.728;2022-08-21T07:20:45;17.60;99.90
23562;DHT22;11959;49.418;8.728;2022-08-21T07:23:32;17.60;99.90
23562;DHT22;11959;49.418;8.728;2022-08-21T07:25:59;17.80;99.90
23562;DHT22;11959;49.418;8.728;2022-08-21T07:28:26;17.90;99.90
23562;DHT22;11959;49.418;8.728;2022-08-21T07:30:56;17.90;99.90
23562;DHT22;11959;49.418;8.728;2022-08-21T07:33:22;17.90;99.90
23562;DHT22;11959;49.418;8.728;2022-08-21T07:35:48;18.00;99.90
23562;DHT22;11959;49.418;8.728;2022-08-21T07:38:14;18.00;99.90
23562;DHT22;11959;49.418;8.728;2022-08-21T07:40:40;18.10;99.90
23562;DHT22;11959;49.418;8.728;2022-08-21T07:43:06;18.10;99.90
23562;DHT22;11959;49.418;8.728;2022-08-21T07:45:32;18.20;99.90
23562;DHT22;11959;49.418;8.728;2022-08-21T07:47:57;18.30;99.90
23562;DHT22;11959;49.418;8.728;2022-08-21T07:50:24;18.30;99.90
23562;DHT22;11959;49.418;8.728;2022-08-21T07:52:50;18.40;99.90
23562;DHT22;11959;49.418;8.728;2022-08-21T07:55:18;18.50;99.90
23562;DHT22;11959;49.418;8.728;2022-08-21T07:57:45;18.60;99.90
23562;DHT22;11959;49.418;8.728;2022-08-21T08:00:16;18.70;99.90
23562;DHT22;11959;49.418;8.728;2022-08-21T08:02:44;18.70;99.90
23562;DHT22;11959;49.418;8.728;2022-08-21T08:05:11;18.90;99.90
23562;DHT22;11959;49.418;8.728;2022-08-21T08:07:38;18.90;99.90
23562;DHT22;11959;49.418;8.728;2022-08-21T08:10:05;19.00;99.90
23562;DHT22;11959;49.418;8.728;2022-08-21T08:12:33;19.10;99.90
23562;DHT22;11959;49.418;8.728;2022-08-21T08:15:00;19.20;99.90
23562;DHT22;11959;49.418;8.728;2022-08-21T08:17:26;19.30;99.90
23562;DHT22;11959;49.418;8.728;2022-08-21T08:19:53;19.50;99.90
23562;DHT22;11959;49.418;8.728;2022-08-21T08:22:22;19.50;99.90
23562;DHT22;11959;49.418;8.728;2022-08-21T08:24:50;19.60;99.90
23562;DHT22;11959;49.418;8.728;2022-08-21T08:27:16;19.80;99.90
23562;DHT22;11959;49.418;8.728;2022-08-21T08:29:43;19.80;99.90
23562;DHT22;11959;49.418;8.728;2022-08-21T08:32:08;19.90;99.90
23562;DHT22;11959;49.418;8.728;2022-08-21T08:34:35;20.00;99.90
23562;DHT22;11959;49.418;8.728;2022-08-21T08:37:01;20.10;99.90
23562;DHT22;11959;49.418;8.728;2022-08-21T08:39:28;20.20;99.90
23562;DHT22;11959;49.418;8.728;2022-08-21T08:44:35;20.40;99.90
23562;DHT22;11959;49.418;8.728;2022-08-21T08:47:01;20.60;99.90
23562;DHT22;11959;49.418;8.728;2022-08-21T08:52:15;20.70;99.90
23562;DHT22;11959;49.418;8.728;2022-08-21T08:54:45;20.80;99.90
23562;DHT22;11959;49.418;8.728;2022-08-21T08:57:17;21.00;99.90
23562;DHT22;11959;49.418;8.728;2022-08-21T08:59:49;21.10;99.90
23562;DHT22;11959;49.418;8.728;2022-08-21T09:02:17;21.20;99.90
23562;DHT22;11959;49.418;8.728;2022-08-21T09:04:45;21.30;99.90
23562;DHT22;11959;49.418;8.728;2022-08-21T09:10:17;21.50;99.90
23562;DHT22;11959;49.418;8.728;2022-08-21T09:15:47;21.70;99.90
23562;DHT22;11959;49.418;8.728;2022-08-21T09:21:43;22.00;99.90
23562;DHT22;11959;49.418;8.728;2022-08-21T09:27:17;22.10;99.90
23562;DHT22;11959;49.418;8.728;2022-08-21T09:29:46;22.20;99.90
23562;DHT22;11959;49.418;8.728;2022-08-21T09:32:18;22.30;99.90
23562;DHT22;11959;49.418;8.728;2022-08-21T09:37:35;22.50;99.90
23562;DHT22;11959;49.418;8.728;2022-08-21T09:45:37;22.90;99.90
23562;DHT22;11959;49.418;8.728;2022-08-21T09:50:46;23.10;99.90
23562;DHT22;11959;49.418;8.728;2022-08-21T09:53:24;23.20;99.90
23562;DHT22;11959;49.418;8.728;2022-08-21T09:55:57;23.40;99.90
23562;DHT22;11959;49.418;8.728;2022-08-21T09:58:45;23.60;99.90
23562;DHT22;11959;49.418;8.728;2022-08-21T10:01:21;23.90;99.60
23562;DHT22;11959;49.418;8.728;2022-08-21T10:03:47;24.00;98.40
23562;DHT22;11959;49.418;8.728;2022-08-21T10:06:25;24.20;97.80
23562;DHT22;11959;49.418;8.728;2022-08-21T10:09:07;24.40;97.40
23562;DHT22;11959;49.418;8.728;2022-08-21T10:11:34;24.60;96.90
23562;DHT22;11959;49.418;8.728;2022-08-21T10:14:35;24.70;96.60
23562;DHT22;11959;49.418;8.728;2022-08-21T10:17:06;24.90;95.10
23562;DHT22;11959;49.418;8.728;2022-08-21T10:22:36;25.30;94.40
23562;DHT22;11959;49.418;8.728;2022-08-21T10:34:36;25.80;93.80
23562;DHT22;11959;49.418;8.728;2022-08-21T10:45:32;26.20;92.80
23562;DHT22;11959;49.418;8.728;2022-08-21T10:48:06;26.40;92.30
23562;DHT22;11959;49.418;8.728;2022-08-21T10:50:44;26.40;91.70
23562;DHT22;11959;49.418;8.728;2022-08-21T11:01:54;26.50;91.40
23562;DHT22;11959;49.418;8.728;2022-08-21T11:07:03;26.80;90.80
23562;DHT22;11959;49.418;8.728;2022-08-21T11:09:31;26.80;90.30
23562;DHT22;11959;49.418;8.728;2022-08-21T11:12:03;26.90;90.60
23562;DHT22;11959;49.418;8.728;2022-08-21T11:14:41;26.90;90.40
23562;DHT22;11959;49.418;8.728;2022-08-21T11:17:13;26.90;90.80
23562;DHT22;11959;49.418;8.728;2022-08-21T11:19:47;27.00;89.60
23562;DHT22;11959;49.418;8.728;2022-08-21T11:24:56;26.90;88.70
23562;DHT22;11959;49.418;8.728;2022-08-21T11:28:33;26.90;89.20
23562;DHT22;11959;49.418;8.728;2022-08-21T11:33:48;27.00;86.80
23562;DHT22;11959;49.418;8.728;2022-08-21T11:38:57;27.20;88.20
23562;DHT22;11959;49.418;8.728;2022-08-21T11:41:34;27.30;87.10
23562;DHT22;11959;49.418;8.728;2022-08-21T11:52:32;27.30;84.50
23562;DHT22;11959;49.418;8.728;2022-08-21T11:55:05;27.30;85.10
23562;DHT22;11959;49.418;8.728;2022-08-21T11:57:39;27.30;86.10
23562;DHT22;11959;49.418;8.728;2022-08-21T12:00:20;27.30;86.70
23562;DHT22;11959;49.418;8.728;2022-08-21T12:03:05;27.40;85.30
23562;DHT22;11959;49.418;8.728;2022-08-21T12:05:39;27.40;87.00
23562;DHT22;11959;49.418;8.728;2022-08-21T12:10:39;27.50;84.60
23562;DHT22;11959;49.418;8.728;2022-08-21T12:13:27;27.50;85.30
23562;DHT22;11959;49.418;8.728;2022-08-21T12:15:53;27.50;85.40
23562;DHT22;11959;49.418;8.728;2022-08-21T12:18:30;27.50;84.50
23562;DHT22;11959;49.418;8.728;2022-08-21T12:21:21;27.60;84.60
23562;DHT22;11959;49.418;8.728;2022-08-21T12:24:04;27.60;82.30
23562;DHT22;11959;49.418;8.728;2022-08-21T12:26:37;27.50;80.60
23562;DHT22;11959;49.418;8.728;2022-08-21T12:29:16;27.50;81.40
23562;DHT22;11959;49.418;8.728;2022-08-21T12:31:57;27.40;81.50
23562;DHT22;11959;49.418;8.728;2022-08-21T12:34:30;27.50;80.90
23562;DHT22;11959;49.418;8.728;2022-08-21T12:37:00;27.50;81.40
23562;DHT22;11959;49.418;8.728;2022-08-21T12:39:29;27.40;79.10
23562;DHT22;11959;49.418;8.728;2022-08-21T12:44:44;27.40;79.10
23562;DHT22;11959;49.418;8.728;2022-08-21T12:47:43;27.40;78.10
23562;DHT22;11959;49.418;8.728;2022-08-21T12:53:15;27.40;79.60
23562;DHT22;11959;49.418;8.728;2022-08-21T12:55:45;27.50;79.10
23562;DHT22;11959;49.418;8.728;2022-08-21T12:58:22;27.40;79.10
23562;DHT22;11959;49.418;8.728;2022-08-21T13:00:54;27.30;80.50
23562;DHT22;11959;49.418;8.728;2022-08-21T13:03:22;27.20;80.30
23562;DHT22;11959;49.418;8.728;2022-08-21T13:05:49;27.30;77.20
23562;DHT22;11959;49.418;8.728;2022-08-21T13:08:21;27.30;77.60
23562;DHT22;11959;49.418;8.728;2022-08-21T13:10:49;27.30;77.50
23562;DHT22;11959;49.418;8.728;2022-08-21T13:13:21;27.30;78.20
23562;DHT22;11959;49.418;8.728;2022-08-21T13:15:47;27.30;78.90
23562;DHT22;11959;49.418;8.728;2022-08-21T13:18:21;27.40;79.10
23562;DHT22;11959;49.418;8.728;2022-08-21T13:20:48;27.50;78.90
23562;DHT22;11959;49.418;8.728;2022-08-21T13:23:23;27.50;78.90
23562;DHT22;11959;49.418;8.728;2022-08-21T13:25:49;27.50;77.60
23562;DHT22;11959;49.418;8.728;2022-08-21T13:28:15;27.50;78.40
23562;DHT22;11959;49.418;8.728;2022-08-21T13:30:52;27.50;78.90
23562;DHT22;11959;49.418;8.728;2022-08-21T13:33:21;27.60;79.80
23562;DHT22;11959;49.418;8.728;2022-08-21T13:38:32;27.60;79.20
23562;DHT22;11959;49.418;8.728;2022-08-21T13:41:01;27.60;79.20
23562;DHT22;11959;49.418;8.728;2022-08-21T13:43:32;27.70;78.80
23562;DHT22;11959;49.418;8.728;2022-08-21T13:46:00;27.70;79.30
23562;DHT22;11959;49.418;8.728;2022-08-21T13:48:30;27.70;79.40
23562;DHT22;11959;49.418;8.728;2022-08-21T13:50:57;27.70;79.00
23562;DHT22;11959;49.418;8.728;2022-08-21T13:53:36;27.70;78.20
23562;DHT22;11959;49.418;8.728;2022-08-21T13:56:03;27.70;78.10
23562;DHT22;11959;49.418;8.728;2022-08-21T13:58:45;27.60;78.60
23562;DHT22;11959;49.418;8.728;2022-08-21T14:01:25;27.60;78.50
23562;DHT22;11959;49.418;8.728;2022-08-21T14:03:55;27.60;76.90
23562;DHT22;11959;49.418;8.728;2022-08-21T14:06:25;27.60;77.80
23562;DHT22;11959;49.418;8.728;2022-08-21T14:09:02;27.60;77.30
23562;DHT22;11959;49.418;8.728;2022-08-21T14:11:34;27.70;79.10
23562;DHT22;11959;49.418;8.728;2022-08-21T14:14:03;27.80;76.90
23562;DHT22;11959;49.418;8.728;2022-08-21T14:16:45;27.70;78.30
23562;DHT22;11959;49.418;8.728;2022-08-21T14:19:22;27.80;78.10
23562;DHT22;11959;49.418;8.728;2022-08-21T14:21:47;27.80;78.10
23562;DHT22;11959;49.418;8.728;2022-08-21T14:24:26;27.90;76.30
23562;DHT22;11959;49.418;8.728;2022-08-21T14:27:06;27.90;75.60
23562;DHT22;11959;49.418;8.728;2022-08-21T14:29:35;27.90;75.90
23562;DHT22;11959;49.418;8.728;2022-08-21T14:32:11;28.00;74.50
23562;DHT22;11959;49.418;8.728;2022-08-21T14:34:37;27.90;75.70
23562;DHT22;11959;49.418;8.728;2022-08-21T14:37:03;27.90;76.50
23562;DHT22;11959;49.418;8.728;2022-08-21T14:39:29;28.00;76.60
23562;DHT22;11959;49.418;8.728;2022-08-21T14:41:55;28.00;76.20
23562;DHT22;11959;49.418;8.728;2022-08-21T14:44:22;28.00;76.70
23562;DHT22;11959;49.418;8.728;2022-08-21T14:46:48;27.90;77.10
23562;DHT22;11959;49.418;8.728;2022-08-21T14:49:13;27.90;77.80
23562;DHT22;11959;49.418;8.728;2022-08-21T14:51:39;27.90;76.60
23562;DHT22;11959;49.418;8.728;2022-08-21T14:54:06;27.80;76.60
23562;DHT22;11959;49.418;8.728;2022-08-21T14:56:33;27.80;77.50
23562;DHT22;11959;49.418;8.728;2022-08-21T14:59:04;27.90;77.70
23562;DHT22;11959;49.418;8.728;2022-08-21T15:01:34;27.90;77.50
23562;DHT22;11959;49.418;8.728;2022-08-21T15:04:00;27.90;76.80
23562;DHT22;11959;49.418;8.728;2022-08-21T15:06:26;27.80;77.00
23562;DHT22;11959;49.418;8.728;2022-08-21T15:08:51;27.70;77.30
23562;DHT22;11959;49.418;8.728;2022-08-21T15:11:20;27.70;77.20
23562;DHT22;11959;49.418;8.728;2022-08-21T15:13:46;27.70;77.40
23562;DHT22;11959;49.418;8.728;2022-08-21T15:16:13;27.60;77.70
23562;DHT22;11959;49.418;8.728;2022-08-21T15:18:39;27.50;77.30
23562;DHT22;11959;49.418;8.728;2022-08-21T15:21:05;27.50;77.30
23562;DHT22;11959;49.418;8.728;2022-08-21T15:23:30;27.40;77.40
23562;DHT22;11959;49.418;8.728;2022-08-21T15:25:56;27.50;77.00
23562;DHT22;11959;49.418;8.728;2022-08-21T15:28:24;27.60;78.00
23562;DHT22;11959;49.418;8.728;2022-08-21T15:30:50;27.70;78.00
23562;DHT22;11959;49.418;8.728;2022-08-21T15:33:17;27.80;77.50
23562;DHT22;11959;49.418;8.728;2022-08-21T15:35:43;27.90;78.00
23562;DHT22;11959;49.418;8.728;2022-08-21T15:38:09;27.90;77.10
23562;DHT22;11959;49.418;8.728;2022-08-21T15:40:35;27.90;77.30
23562;DHT22;11959;49.418;8.728;2022-08-21T15:43:03;28.10;77.50
23562;DHT22;11959;49.418;8.728;2022-08-21T15:45:29;28.20;76.30
23562;DHT22;11959;49.418;8.728;2022-08-21T15:47:55;28.10;77.30
23562;DHT22;11959;49.418;8.728;2022-08-21T15:50:22;28.10;77.70
23562;DHT22;11959;49.418;8.728;2022-08-21T15:52:48;28.10;77.70
23562;DHT22;11959;49.418;8.728;2022-08-21T15:55:13;28.20;76.10
23562;DHT22;11959;49.418;8.728;2022-08-21T15:57:45;28.10;75.10
23562;DHT22;11959;49.418;8.728;2022-08-21T16:00:18;28.20;76.50
23562;DHT22;11959;49.418;8.728;2022-08-21T16:02:47;28.20;76.30
23562;DHT22;11959;49.418;8.728;2022-08-21T16:05:15;28.30;76.30
23562;DHT22;11959;49.418;8.728;2022-08-21T16:07:43;28.30;76.70
23562;DHT22;11959;49.418;8.728;2022-08-21T16:10:10;28.40;75.70
23562;DHT22;11959;49.418;8.728;2022-08-21T16:12:43;28.40;75.50
23562;DHT22;11959;49.418;8.728;2022-08-21T16:15:11;28.50;74.80
23562;DHT22;11959;49.418;8.728;2022-08-21T16:17:39;28.50;75.00
23562;DHT22;11959;49.418;8.728;2022-08-21T16:20:11;28.50;76.30
23562;DHT22;11959;49.418;8.728;2022-08-21T16:22:37;28.50;75.90
23562;DHT22;11959;49.418;8.728;2022-08-21T16:25:04;28.60;76.30
23562;DHT22;11959;49.418;8.728;2022-08-21T16:27:30;28.70;76.40
23562;DHT22;11959;49.418;8.728;2022-08-21T16:29:56;28.70;75.80
23562;DHT22;11959;49.418;8.728;2022-08-21T16:32:22;28.60;75.10
23562;DHT22;11959;49.418;8.728;2022-08-21T16:34:48;28.70;75.10
23562;DHT22;11959;49.418;8.728;2022-08-21T16:37:15;28.50;74.50
23562;DHT22;11959;49.418;8.728;2022-08-21T16:39:41;28.60;74.70
23562;DHT22;11959;49.418;8.728;2022-08-21T16:42:11;28.60;74.70
23562;DHT22;11959;49.418;8.728;2022-08-21T16:44:37;28.60;74.20
23562;DHT22;11959;49.418;8.728;2022-08-21T16:47:03;28.50;74.90
23562;DHT22;11959;49.418;8.728;2022-08-21T16:49:29;28.40;74.60
23562;DHT22;11959;49.418;8.728;2022-08-21T16:51:56;28.40;75.40
23562;DHT22;11959;49.418;8.728;2022-08-21T16:54:22;28.30;76.20
23562;DHT22;11959;49.418;8.728;2022-08-21T16:56:49;28.30;74.60
23562;DHT22;11959;49.418;8.728;2022-08-21T16:59:15;28.30;74.50
23562;DHT22;11959;49.418;8.728;2022-08-21T17:01:41;28.20;75.50
23562;DHT22;11959;49.418;8.728;2022-08-21T17:04:07;28.20;77.10
23562;DHT22;11959;49.418;8.728;2022-08-21T17:06:33;28.10;76.40
23562;DHT22;11959;49.418;8.728;2022-08-21T17:08:59;27.90;77.50
23562;DHT22;11959;49.418;8.728;2022-08-21T17:11:38;27.70;77.00
23562;DHT22;11959;49.418;8.728;2022-08-21T17:14:14;27.50;77.60